Friday, May 6, 2016, 5:12 AM EDT

KNHK, Nas Patuxent River Md

Location: Patuxent River, MD, United States Lat: 38.3
Local Time: 5:12 AM EDT ( 9:12 GMT) Lon: -76.4
Time Zone: US/Eastern Elev: 39 ft

Show me the last for .
Show Decoded

2016-05-06 04:52 METAR KNHK 060852Z AUTO 04013KT 7SM OVC020 11/08 A2962 RMK AO2 SLP030 T01110083
                 56008 PWINO $ =
2016-05-06 03:52 METAR KNHK 060752Z AUTO 03011KT 9SM BKN015 OVC021 12/09 A2962 RMK AO2 SLP031
                 T01170089 PWINO $ =
2016-05-06 02:52 METAR KNHK 060652Z AUTO 06006KT 7SM OVC020 11/09 A2962 RMK AO2 SLP031 T01110089
                 PWINO $ =
2016-05-06 01:52 METAR KNHK 060552Z AUTO 04008KT 10SM BKN017 OVC023 12/09 A2964 RMK AO2 SLP037
                 60001 T01170089 10117 20111 57005 PWINO $ =
2016-05-06 01:04 METAR KNHK 060504Z AUTO 04006KT 10SM FEW016 OVC028 12/09 A2965 RMK AO2 T01170089
                 PWINO $ =
2016-05-06 00:52 METAR KNHK 060452Z AUTO 04008KT 10SM SCT016 OVC030 12/09 A2965 RMK AO2 SLP040
                 T01170089 401220100 PWINO $ =
2016-05-05 23:52 METAR KNHK 060352Z AUTO 36004KT 10SM FEW015 SCT024 OVC039 12/09 A2965 RMK AO2
                 SLP040 T01170089 PWINO $ =
2016-05-05 23:20 METAR KNHK 060320Z AUTO 03005KT 10SM FEW017 BKN027 OVC034 12/09 A2965 RMK AO2
                 T01170089 PWINO $ =
2016-05-05 22:59 METAR KNHK 060259Z AUTO 02007KT 10SM OVC034 12/09 A2966 RMK AO2 T01170089 PWINO
                 $ =
2016-05-05 22:52 METAR KNHK 060252Z 02007KT 10SM SCT015 BKN022 OVC027 12/09 A2966 RMK AO2 SLP042
                 60001 T01170089 50007 $ =
2016-05-05 22:36 METAR KNHK 060236Z 03007KT 10SM SCT015 BKN022 OVC027 12/09 A2966 RMK AO2
                 T01170089 $ =
2016-05-05 21:52 METAR KNHK 060152Z 03007KT 10SM SCT009 BKN014 OVC021 11/09 A2967 RMK AO2 DZE49
                 SLP046 P0000 T01110094 $ =
2016-05-05 21:27 METAR KNHK 060127Z 04009KT 4SM -DZ BR SCT008 BKN012 OVC019 11/09 A2967 RMK AO2
                 P0000 T01110094 $ =
2016-05-05 20:52 METAR KNHK 060052Z 03007KT 3SM -DZ BR FEW002 BKN006 OVC014 11/09 A2966 RMK AO2
                 DZB01 SLP042 P0001 T01110094 $ =
2016-05-05 20:26 METAR KNHK 060026Z 04008KT 3SM -DZ BR FEW002 BKN007 OVC014 11/09 A2965 RMK AO2
                 DZB01 P0000 T01110094 $ =
2016-05-05 20:14 METAR KNHK 060014Z 03010KT 6SM -DZ BR FEW007 BKN013 OVC020 11/09 A2964 RMK AO2
                 DZB01 P0000 T01110089 $ =
2016-05-05 19:52 METAR KNHK 052352Z 03010KT 10SM FEW013 BKN021 OVC028 12/09 A2963 RMK AO2 SLP035
                 T01170089 10122 20117 53009 $ =
2016-05-05 18:52 METAR KNHK 052252Z 02010KT 10SM BKN020 OVC027 12/08 A2962 RMK AO2 SLP029
                 T01220083 $ =
2016-05-05 17:52 METAR KNHK 052152Z 03012KT 10SM OVC021 12/08 A2961 RMK AO2 SLP028 T01220078 $ =
2016-05-05 16:52 METAR KNHK 052052Z 01011KT 10SM OVC018 12/08 A2961 RMK AO2 SLP026 T01220083
                 56005 $ =
2016-05-05 15:52 METAR KNHK 051952Z 02012KT 10SM OVC018 12/08 A2961 RMK AO2 SLP027 T01170078 $ =
2016-05-05 14:52 METAR KNHK 051852Z 03014KT 10SM OVC015 12/08 A2961 RMK AO2 SLP028 T01170078 $ =
2016-05-05 13:52 METAR KNHK 051752Z 02011KT 10SM OVC015 12/08 A2962 RMK AO2 SLP031 T01170078
                 10117 20100 58012 $ =
2016-05-05 12:52 METAR KNHK 051652Z 02011KT 10SM OVC012 12/08 A2963 RMK AO2 SLP035 T01170083 $ =
2016-05-05 12:32 METAR KNHK 051632Z 03012KT 10SM OVC012 11/08 A2964 RMK AO2 T01110078 $ =
2016-05-05 11:52 METAR KNHK 051552Z 04012KT 10SM OVC015 11/08 A2965 RMK AO2 SLP040 T01110078 $ =
2016-05-05 10:52 METAR KNHK 051452Z 05011KT 10SM OVC015 11/08 A2966 RMK AO2 SLP043 T01110078
                 51004 $ =
2016-05-05 10:06 METAR KNHK 051406Z 04010KT 10SM OVC010 11/08 A2966 RMK AO2 T01060078 $ =
2016-05-05 09:52 METAR KNHK 051352Z 05010KT 10SM BKN009 OVC012 11/08 A2965 RMK AO2 SLP041
                 T01060078 $ =
2016-05-05 08:52 METAR KNHK 051252Z 06012KT 10SM OVC008 11/08 A2966 RMK AO2 SLP043 T01060078 $ =
2016-05-05 07:52 METAR KNHK 051152Z 04009KT 10SM OVC008 10/08 A2965 RMK AO2 SLP039 70001
                 T01000083 10111 20100 53003 $ =
2016-05-05 06:52 METAR KNHK 051052Z 04011KT 10SM OVC009 10/08 A2964 RMK AO2 SLP036 T01000078 $ =
2016-05-05 05:52 METAR KNHK 050952Z 05012KT 10SM OVC009 10/08 A2962 RMK AO2 SLP030 T01000078 $ =
2016-05-05 05:43 METAR KNHK 050943Z AUTO 03010KT 10SM OVC010 10/08 A2961 RMK AO2 T01000078 PWINO
                 $ =
2016-05-05 05:35 METAR KNHK 050935Z AUTO 03010KT 10SM OVC009 10/08 A2962 RMK AO2 T01000083 PWINO
                 $ =
2016-05-05 05:28 METAR KNHK 050928Z AUTO 05010KT 10SM OVC010 10/08 A2962 RMK AO2 T01000078 PWINO
                 $ =
2016-05-05 05:16 METAR KNHK 050916Z AUTO 03008KT 10SM OVC009 11/08 A2963 RMK AO2 T01060083 PWINO
                 $ =

Support USWX by starting your Amazon purchase here.